Time;durP1;ratioP1;P1;durP2;ratioP2;P2;SDS_P1;SDS_P2;PMS_P1;PMS_P2;Temp;Humidity;BMP_temperature;BMP_pressure;BME280_temperature;BME280_humidity;BME280_pressure;Samples;Min_cycle;Max_cycle;Signal;HPM_P1;HPM_P2
2022/05/08 00:00:48;;;;;;;14.80;13.33;;;14.10;99.90;;;;;;5134005;28;20449;-58
2022/05/08 00:03:15;;;;;;;14.50;13.10;;;14.00;99.90;;;;;;5133882;28;20934;-58
2022/05/08 00:05:43;;;;;;;13.30;12.10;;;14.00;99.90;;;;;;5134322;28;20465;-59
2022/05/08 00:08:10;;;;;;;15.50;14.07;;;14.00;99.90;;;;;;5134241;28;20474;-59
2022/05/08 00:10:40;;;;;;;15.57;12.40;;;14.00;99.90;;;;;;5134622;28;20518;-59
2022/05/08 00:13:07;;;;;;;16.03;14.40;;;14.00;99.90;;;;;;5134446;28;20478;-58
2022/05/08 00:15:34;;;;;;;14.47;13.07;;;14.00;99.90;;;;;;5133868;28;20481;-59
2022/05/08 00:18:01;;;;;;;14.83;13.43;;;13.90;99.90;;;;;;5134157;28;20472;-59
2022/05/08 00:20:28;;;;;;;14.23;12.10;;;14.00;99.90;;;;;;5133959;28;20456;-59
2022/05/08 00:22:55;;;;;;;21.57;13.67;;;14.00;99.90;;;;;;5134044;28;20999;-58
2022/05/08 00:25:22;;;;;;;15.70;14.10;;;13.80;99.90;;;;;;5134027;28;20454;-59
2022/05/08 00:27:51;;;;;;;14.97;13.57;;;13.70;99.90;;;;;;5134077;28;20481;-58
2022/05/08 00:30:18;;;;;;;14.57;13.17;;;13.70;99.90;;;;;;5133844;28;20465;-59
2022/05/08 00:32:46;;;;;;;15.47;14.00;;;13.80;99.90;;;;;;5133968;28;20481;-59
2022/05/08 00:35:13;;;;;;;19.17;14.23;;;13.70;99.90;;;;;;5133613;28;20467;-59
2022/05/08 00:37:40;;;;;;;15.50;13.67;;;13.70;99.90;;;;;;5133855;28;20441;-59
2022/05/08 00:40:08;;;;;;;16.10;14.33;;;13.60;99.90;;;;;;5133824;28;20532;-59
2022/05/08 00:42:35;;;;;;;14.87;13.43;;;13.60;99.90;;;;;;5133636;28;20855;-58
2022/05/08 00:45:05;;;;;;;15.23;13.77;;;13.50;99.90;;;;;;5133576;28;20446;-61
2022/05/08 00:47:33;;;;;;;18.10;15.07;;;13.50;99.90;;;;;;5134215;28;20446;-59
2022/05/08 00:50:00;;;;;;;16.83;15.13;;;13.60;99.90;;;;;;5133780;28;20794;-58
2022/05/08 00:52:29;;;;;;;19.70;14.43;;;13.40;99.90;;;;;;5133860;28;20477;-58
2022/05/08 00:54:57;;;;;;;15.17;13.60;;;13.20;99.90;;;;;;5133392;28;20456;-59
2022/05/08 00:57:24;;;;;;;16.53;14.83;;;13.30;99.90;;;;;;5133469;28;20445;-59
2022/05/08 00:59:52;;;;;;;15.20;13.70;;;13.20;99.90;;;;;;5134835;27;20462;-58
2022/05/08 01:02:20;;;;;;;15.30;13.80;;;13.10;99.90;;;;;;5137174;27;20442;-58
2022/05/08 01:04:47;;;;;;;15.40;14.10;;;13.20;99.90;;;;;;5137280;27;20442;-58
2022/05/08 01:07:15;;;;;;;15.90;14.07;;;13.30;99.90;;;;;;5137156;27;20425;-58
2022/05/08 01:09:42;;;;;;;15.07;13.70;;;13.40;99.90;;;;;;5137189;27;20469;-58
2022/05/08 01:12:10;;;;;;;16.73;15.03;;;13.50;99.90;;;;;;5136886;27;20473;-59
2022/05/08 01:14:37;;;;;;;15.17;13.77;;;13.30;99.90;;;;;;5137117;27;20449;-59
2022/05/08 01:17:05;;;;;;;16.33;14.47;;;13.20;99.90;;;;;;5136841;27;20463;-58
2022/05/08 01:19:33;;;;;;;16.07;13.40;;;12.90;99.90;;;;;;5136989;27;20801;-59
2022/05/08 01:22:02;;;;;;;16.73;13.80;;;12.90;99.90;;;;;;5136782;27;20798;-59
2022/05/08 01:24:29;;;;;;;16.53;14.87;;;12.80;99.90;;;;;;5137048;27;20518;-59
2022/05/08 01:26:56;;;;;;;16.40;14.90;;;12.90;99.90;;;;;;5136988;27;20448;-58
2022/05/08 01:29:23;;;;;;;19.10;17.30;;;12.90;99.90;;;;;;5136430;27;21051;-59
2022/05/08 01:31:50;;;;;;;16.93;15.33;;;13.10;99.90;;;;;;5136458;27;20426;-59
2022/05/08 01:34:17;;;;;;;16.60;15.00;;;13.10;99.90;;;;;;5136837;27;20469;-59
2022/05/08 01:36:44;;;;;;;17.03;15.33;;;13.20;99.90;;;;;;5136691;27;20450;-59
2022/05/08 01:39:13;;;;;;;17.27;14.10;;;13.20;99.90;;;;;;5136882;27;20475;-58
2022/05/08 01:41:40;;;;;;;16.73;14.57;;;13.00;99.90;;;;;;5136587;27;20500;-58
2022/05/08 01:44:07;;;;;;;17.17;15.37;;;13.00;99.90;;;;;;5136689;27;20452;-58
2022/05/08 01:46:34;;;;;;;19.10;16.77;;;13.00;99.90;;;;;;5136511;27;20817;-59
2022/05/08 01:49:00;;;;;;;16.07;14.50;;;13.00;99.90;;;;;;5136152;27;20468;-58
2022/05/08 01:51:28;;;;;;;17.00;14.70;;;13.00;99.90;;;;;;5135932;27;20935;-58
2022/05/08 01:53:55;;;;;;;16.23;14.63;;;13.00;99.90;;;;;;5136383;27;20482;-57
2022/05/08 01:56:23;;;;;;;15.60;14.20;;;13.00;99.90;;;;;;5136256;27;20450;-57
2022/05/08 01:58:52;;;;;;;17.30;15.50;;;13.00;99.90;;;;;;5136269;27;20468;-58
2022/05/08 02:01:19;;;;;;;17.07;15.40;;;12.80;99.90;;;;;;5135772;27;20536;-57
2022/05/08 02:03:47;;;;;;;16.83;15.07;;;12.80;99.90;;;;;;5136236;27;20438;-59
2022/05/08 02:06:16;;;;;;;18.27;14.87;;;12.80;99.90;;;;;;5135829;27;20936;-59
2022/05/08 02:08:44;;;;;;;16.07;14.77;;;12.80;99.90;;;;;;5136279;27;20488;-59
2022/05/08 02:11:11;;;;;;;15.27;13.70;;;12.50;99.90;;;;;;5135671;27;20437;-59
2022/05/08 02:13:39;;;;;;;17.00;15.30;;;12.60;99.90;;;;;;5135697;27;20480;-58
2022/05/08 02:16:06;;;;;;;18.70;15.17;;;12.70;99.90;;;;;;5135517;27;20498;-58
2022/05/08 02:18:34;;;;;;;16.33;14.80;;;12.70;99.90;;;;;;5135601;27;20904;-58
2022/05/08 02:21:01;;;;;;;16.33;14.70;;;12.70;99.90;;;;;;5135794;27;20492;-59
2022/05/08 02:23:28;;;;;;;16.27;14.80;;;12.70;99.90;;;;;;5135846;27;20445;-59
2022/05/08 02:25:56;;;;;;;16.67;15.17;;;12.70;99.90;;;;;;5135814;27;20442;-59
2022/05/08 02:28:24;;;;;;;17.47;15.47;;;12.70;99.90;;;;;;5135473;27;21027;-58
2022/05/08 02:30:52;;;;;;;16.80;15.00;;;12.70;99.90;;;;;;5135260;27;20967;-58
2022/05/08 02:33:19;;;;;;;15.67;14.17;;;12.70;99.90;;;;;;5135847;27;20481;-59
2022/05/08 02:35:46;;;;;;;16.03;14.53;;;12.70;99.90;;;;;;5135619;27;20448;-59
2022/05/08 02:38:13;;;;;;;15.70;14.17;;;12.80;99.90;;;;;;5135391;27;20498;-59
2022/05/08 02:40:41;;;;;;;19.07;14.10;;;12.40;99.90;;;;;;5135311;27;20433;-59
2022/05/08 02:43:08;;;;;;;15.87;14.17;;;12.20;99.90;;;;;;5135100;27;20446;-58
2022/05/08 02:45:35;;;;;;;16.13;14.63;;;12.30;99.90;;;;;;5135604;27;20502;-58
2022/05/08 02:48:04;;;;;;;16.27;14.77;;;12.50;99.90;;;;;;5135256;27;20466;-59
2022/05/08 02:50:31;;;;;;;17.93;16.07;;;12.60;99.90;;;;;;5134950;27;20446;-58
2022/05/08 02:52:58;;;;;;;15.87;14.27;;;12.60;99.90;;;;;;5135119;27;20484;-59
2022/05/08 03:00:54;;;;;;;17.13;15.43;;;12.00;99.90;;;;;;5134908;27;20554;-58
2022/05/08 03:03:23;;;;;;;15.63;14.20;;;12.00;99.90;;;;;;5135200;27;20442;-58
2022/05/08 03:05:50;;;;;;;18.23;15.50;;;12.10;99.90;;;;;;5134994;27;20532;-59
2022/05/08 03:08:18;;;;;;;17.00;15.33;;;12.10;99.90;;;;;;5134885;27;20822;-58
2022/05/08 03:13:35;;;;;;;17.03;15.53;;;12.00;99.90;;;;;;5134679;27;20464;-59
2022/05/08 03:16:02;;;;;;;26.10;18.70;;;12.10;99.90;;;;;;5135260;27;20429;-59
2022/05/08 03:18:30;;;;;;;17.13;15.40;;;12.20;99.90;;;;;;5134828;27;20462;-58
2022/05/08 03:20:58;;;;;;;16.57;14.97;;;12.20;99.90;;;;;;5134684;27;20870;-59
2022/05/08 03:23:25;;;;;;;16.27;14.67;;;12.20;99.90;;;;;;5133816;27;20442;-59
2022/05/08 03:25:52;;;;;;;17.30;15.60;;;12.20;99.90;;;;;;5134755;27;20442;-59
2022/05/08 03:28:19;;;;;;;17.23;15.23;;;12.10;99.90;;;;;;5134651;27;20464;-58
2022/05/08 03:30:46;;;;;;;18.33;16.53;;;12.10;99.90;;;;;;5134241;27;20477;-59
2022/05/08 03:33:13;;;;;;;20.57;17.23;;;12.00;99.90;;;;;;5134377;27;20560;-58
2022/05/08 03:35:43;;;;;;;18.77;16.60;;;11.90;99.90;;;;;;5134298;27;20473;-59
2022/05/08 03:38:10;;;;;;;18.40;16.60;;;11.90;99.90;;;;;;5134435;27;20484;-58
2022/05/08 03:40:38;;;;;;;17.17;15.30;;;11.80;99.90;;;;;;5134171;27;20952;-58
2022/05/08 03:43:06;;;;;;;17.97;16.27;;;11.70;99.90;;;;;;5134193;27;20811;-58
2022/05/08 03:45:33;;;;;;;17.37;15.67;;;11.80;99.90;;;;;;5134397;28;20450;-58
2022/05/08 03:48:00;;;;;;;16.80;15.30;;;11.90;99.90;;;;;;5134130;28;20472;-59
2022/05/08 03:50:28;;;;;;;20.70;17.37;;;12.10;99.90;;;;;;5134310;28;20453;-59
2022/05/08 03:52:57;;;;;;;16.37;14.70;;;12.20;99.90;;;;;;5134166;28;20465;-58
2022/05/08 03:55:25;;;;;;;17.30;15.50;;;12.10;99.90;;;;;;5134256;28;20823;-58
2022/05/08 03:57:52;;;;;;;17.20;15.63;;;12.20;99.90;;;;;;5133974;28;20442;-58
2022/05/08 04:00:20;;;;;;;17.40;15.70;;;12.10;99.90;;;;;;5134236;28;20473;-58
2022/05/08 04:02:47;;;;;;;16.60;15.10;;;12.00;99.90;;;;;;5134077;28;20932;-59
2022/05/08 04:05:15;;;;;;;18.17;16.40;;;12.00;99.90;;;;;;5133906;28;20444;-58
2022/05/08 04:07:42;;;;;;;18.60;16.70;;;12.00;99.90;;;;;;5134257;28;20879;-59
2022/05/08 04:10:11;;;;;;;18.17;16.37;;;12.00;99.90;;;;;;5134168;28;20453;-59
2022/05/08 04:12:38;;;;;;;15.90;14.50;;;11.80;99.90;;;;;;5134173;28;20452;-59
2022/05/08 04:16:15;;;;;;;17.90;16.30;;;11.60;99.90;;;;;;5134096;28;20449;-59
2022/05/08 04:17:53;;;;;;;16.87;15.30;;;11.50;99.90;;;;;;5133772;28;20466;-59
2022/05/08 04:20:21;;;;;;;18.27;16.57;;;11.60;99.90;;;;;;5134048;28;20479;-59
2022/05/08 04:25:34;;;;;;;15.77;14.30;;;11.70;99.90;;;;;;5134006;28;20491;-59
2022/05/08 04:28:01;;;;;;;17.90;16.00;;;11.60;99.90;;;;;;5133946;28;20522;-59
2022/05/08 04:30:28;;;;;;;17.63;16.13;;;11.80;99.90;;;;;;5133712;28;20573;-59
2022/05/08 04:32:56;;;;;;;16.93;15.20;;;11.80;99.90;;;;;;5133609;28;20422;-58
2022/05/08 04:35:23;;;;;;;18.97;16.90;;;11.80;99.90;;;;;;5137632;27;20441;-59
2022/05/08 04:37:50;;;;;;;19.50;17.60;;;11.80;99.90;;;;;;5137840;27;20463;-59
2022/05/08 04:40:17;;;;;;;16.77;15.27;;;11.90;99.90;;;;;;5137634;27;20524;-59
2022/05/08 04:42:46;;;;;;;18.90;17.20;;;11.90;99.90;;;;;;5137758;27;20529;-59
2022/05/08 04:45:13;;;;;;;18.17;16.37;;;12.00;99.90;;;;;;5137872;27;20449;-59
2022/05/08 04:47:40;;;;;;;19.63;17.67;;;12.00;99.90;;;;;;5137354;27;20442;-59
2022/05/08 04:50:08;;;;;;;20.43;18.27;;;12.00;99.90;;;;;;5137651;27;20449;-58
2022/05/08 04:52:35;;;;;;;19.87;17.77;;;12.10;99.90;;;;;;5137370;27;20449;-59
2022/05/08 04:55:03;;;;;;;18.47;16.70;;;12.20;99.90;;;;;;5137837;27;20481;-58
2022/05/08 04:57:30;;;;;;;20.53;17.60;;;12.30;99.90;;;;;;5137621;27;20481;-59
2022/05/08 05:00:00;;;;;;;20.13;18.17;;;12.30;99.90;;;;;;5137321;27;20465;-60
2022/05/08 05:02:27;;;;;;;21.70;18.50;;;12.30;99.90;;;;;;5137411;27;20955;-59
2022/05/08 05:04:54;;;;;;;20.80;18.73;;;12.20;99.90;;;;;;5137019;27;20924;-59
2022/05/08 05:07:21;;;;;;;24.43;17.97;;;12.30;99.90;;;;;;5137374;27;20446;-59
2022/05/08 05:09:48;;;;;;;21.80;19.53;;;12.40;99.90;;;;;;5136893;27;20472;-59
2022/05/08 05:12:16;;;;;;;22.57;20.20;;;12.30;99.90;;;;;;5137280;27;20819;-59
2022/05/08 05:14:43;;;;;;;21.80;19.60;;;12.30;99.90;;;;;;5137065;27;20478;-59
2022/05/08 05:17:11;;;;;;;22.03;19.93;;;12.20;99.90;;;;;;5137219;27;20442;-59
2022/05/08 05:19:38;;;;;;;21.40;19.40;;;12.20;99.90;;;;;;5136660;27;20493;-58
2022/05/08 05:22:05;;;;;;;21.40;19.20;;;12.20;99.90;;;;;;5137029;27;20481;-59
2022/05/08 05:24:33;;;;;;;22.20;19.90;;;12.20;99.90;;;;;;5136939;27;20444;-58
2022/05/08 05:27:01;;;;;;;22.43;20.17;;;12.10;99.90;;;;;;5137033;27;20442;-59
2022/05/08 05:29:28;;;;;;;25.10;20.43;;;12.20;99.90;;;;;;5136502;27;20481;-60
2022/05/08 05:31:55;;;;;;;23.13;20.83;;;12.20;99.90;;;;;;5136691;27;20513;-59
2022/05/08 05:34:23;;;;;;;23.17;20.97;;;12.30;99.90;;;;;;5136304;27;20507;-59
2022/05/08 05:36:51;;;;;;;22.03;19.80;;;12.30;99.90;;;;;;5136868;27;20442;-59
2022/05/08 05:39:18;;;;;;;21.13;19.07;;;12.30;99.90;;;;;;5136827;27;20534;-59
2022/05/08 05:41:45;;;;;;;24.53;20.83;;;12.40;99.90;;;;;;5136451;27;20456;-59
2022/05/08 05:44:12;;;;;;;22.23;18.50;;;12.40;99.90;;;;;;5136598;27;20433;-59
2022/05/08 05:49:27;;;;;;;22.67;20.33;;;12.50;99.90;;;;;;5136255;27;20498;-58
2022/05/08 05:51:54;;;;;;;22.87;20.47;;;12.60;99.90;;;;;;5136729;27;20537;-58
2022/05/08 05:54:22;;;;;;;22.13;19.90;;;12.50;99.90;;;;;;5135968;27;20477;-58
2022/05/08 05:56:49;;;;;;;21.50;19.50;;;12.50;99.90;;;;;;5136120;27;20442;-58
2022/05/08 05:59:16;;;;;;;20.83;18.93;;;12.60;99.90;;;;;;5136133;27;20538;-59
2022/05/08 06:01:44;;;;;;;22.70;20.40;;;12.70;99.90;;;;;;5136346;27;20804;-58
2022/05/08 06:04:11;;;;;;;22.80;19.60;;;12.50;99.90;;;;;;5135863;27;20442;-59
2022/05/08 06:06:39;;;;;;;21.30;19.40;;;12.50;99.90;;;;;;5136252;27;20538;-58
2022/05/08 06:09:07;;;;;;;23.47;20.93;;;12.50;99.90;;;;;;5136320;27;20478;-58
2022/05/08 06:11:35;;;;;;;23.50;21.20;;;12.60;99.90;;;;;;5136167;27;20446;-59
2022/05/08 06:14:02;;;;;;;23.13;20.70;;;12.60;99.90;;;;;;5135598;27;20565;-59
2022/05/08 06:16:31;;;;;;;22.57;20.40;;;12.50;99.90;;;;;;5135772;27;20450;-59
2022/05/08 06:18:58;;;;;;;22.87;20.47;;;12.50;99.90;;;;;;5135502;27;20515;-59
2022/05/08 06:21:25;;;;;;;23.47;21.10;;;12.50;99.90;;;;;;5135911;27;20448;-58
2022/05/08 06:23:55;;;;;;;24.70;20.10;;;12.70;99.90;;;;;;5135746;27;20521;-58
2022/05/08 06:26:22;;;;;;;23.10;19.77;;;12.70;99.90;;;;;;5135498;27;20495;-59
2022/05/08 06:28:49;;;;;;;23.40;20.97;;;12.70;99.90;;;;;;5135362;27;20468;-59
2022/05/08 06:31:17;;;;;;;24.40;21.90;;;12.80;99.90;;;;;;5135331;27;20477;-59
2022/05/08 06:33:46;;;;;;;22.43;20.23;;;12.80;99.90;;;;;;5135249;27;20516;-59
2022/05/08 06:36:14;;;;;;;25.27;20.50;;;12.80;99.90;;;;;;5135635;27;20446;-59
2022/05/08 06:38:41;;;;;;;22.73;20.50;;;12.90;99.90;;;;;;5135384;27;20470;-58
2022/05/08 06:41:10;;;;;;;20.83;18.83;;;13.10;99.90;;;;;;5135228;27;20859;-59
2022/05/08 06:43:40;;;;;;;21.97;19.97;;;13.30;99.90;;;;;;5135483;27;20465;-58
2022/05/08 06:46:07;;;;;;;24.37;21.30;;;13.30;99.90;;;;;;5135406;27;20446;-58
2022/05/08 06:48:34;;;;;;;24.03;21.60;;;13.40;99.90;;;;;;5135265;27;20484;-59
2022/05/08 06:51:02;;;;;;;23.73;21.30;;;13.50;99.90;;;;;;5135227;27;20533;-58
2022/05/08 06:53:29;;;;;;;23.03;20.63;;;13.60;99.90;;;;;;5134924;27;20538;-58
2022/05/08 06:55:56;;;;;;;21.13;19.17;;;13.80;99.90;;;;;;5135205;27;20536;-58
2022/05/08 06:58:25;;;;;;;20.80;18.80;;;14.00;99.90;;;;;;5133828;27;20465;-59
2022/05/08 07:03:37;;;;;;;23.80;19.70;;;14.10;99.90;;;;;;5134825;27;20965;-59
2022/05/08 07:06:04;;;;;;;20.50;18.50;;;14.10;99.90;;;;;;5134832;27;20563;-59
2022/05/08 07:08:33;;;;;;;22.13;19.70;;;14.30;99.90;;;;;;5134796;27;20522;-59
2022/05/08 07:11:01;;;;;;;21.97;19.87;;;14.40;99.90;;;;;;5134987;27;20510;-58
2022/05/08 07:13:33;;;;;;;21.97;19.77;;;14.60;99.90;;;;;;5134818;27;20464;-59
2022/05/08 07:16:01;;;;;;;19.60;17.77;;;14.50;99.90;;;;;;5134689;27;20457;-58
2022/05/08 07:18:29;;;;;;;18.83;17.03;;;14.50;99.90;;;;;;5134420;27;20469;-59
2022/05/08 07:20:57;;;;;;;19.53;17.60;;;14.70;99.90;;;;;;5134326;27;20503;-58
2022/05/08 07:23:24;;;;;;;19.17;17.13;;;14.80;99.90;;;;;;5134619;27;20490;-58
2022/05/08 07:25:51;;;;;;;19.20;17.27;;;14.90;99.90;;;;;;5134710;27;20525;-58
2022/05/08 07:28:19;;;;;;;20.03;18.03;;;14.90;99.90;;;;;;5134133;27;20795;-59
2022/05/08 07:30:48;;;;;;;19.23;17.33;;;14.90;99.90;;;;;;5134199;27;20477;-58
2022/05/08 07:33:16;;;;;;;19.60;17.60;;;14.80;99.90;;;;;;5134533;27;20449;-58
2022/05/08 07:38:28;;;;;;;22.17;18.17;;;14.80;99.90;;;;;;5134481;27;20788;-58
2022/05/08 07:40:57;;;;;;;19.77;17.90;;;14.90;99.90;;;;;;5134534;27;20536;-58
2022/05/08 07:43:25;;;;;;;21.90;19.60;;;15.00;99.90;;;;;;5134306;27;20523;-58
2022/05/08 07:45:53;;;;;;;18.00;16.27;;;15.40;99.90;;;;;;5134118;27;20446;-59
2022/05/08 07:48:21;;;;;;;19.43;17.53;;;15.60;99.90;;;;;;5133931;28;20496;-58
2022/05/08 07:50:48;;;;;;;20.27;18.30;;;15.80;99.90;;;;;;5134309;28;20457;-59
2022/05/08 07:53:15;;;;;;;18.50;16.60;;;15.60;99.90;;;;;;5134292;28;20442;-59
2022/05/08 07:55:43;;;;;;;18.87;16.90;;;15.30;99.90;;;;;;5134357;28;20486;-59
2022/05/08 07:58:11;;;;;;;18.40;16.50;;;15.40;99.90;;;;;;5133872;28;20471;-58
2022/05/08 08:00:38;;;;;;;18.83;17.03;;;15.70;99.90;;;;;;5134338;28;20446;-59
2022/05/08 08:03:07;;;;;;;19.20;15.30;;;16.00;99.90;;;;;;5133914;28;20540;-59
2022/05/08 08:05:34;;;;;;;19.00;17.20;;;16.00;99.90;;;;;;5134053;28;20446;-59
2022/05/08 08:08:02;;;;;;;19.67;17.63;;;15.80;99.90;;;;;;5133969;27;20453;-59
2022/05/08 08:10:29;;;;;;;21.10;18.70;;;16.00;99.90;;;;;;5138502;27;20451;-58
2022/05/08 08:12:57;;;;;;;19.80;17.73;;;16.00;99.90;;;;;;5137932;27;20449;-58
2022/05/08 08:15:24;;;;;;;18.27;16.47;;;16.30;99.90;;;;;;5138308;27;20573;-58
2022/05/08 08:17:51;;;;;;;15.93;14.30;;;16.60;99.90;;;;;;5138179;27;20450;-58
2022/05/08 08:20:20;;;;;;;15.27;13.73;;;16.60;99.90;;;;;;5138280;27;20444;-59
2022/05/08 08:22:47;;;;;;;15.63;14.03;;;16.50;99.90;;;;;;5137668;27;20455;-59
2022/05/08 08:25:14;;;;;;;16.83;15.33;;;16.70;99.90;;;;;;5137898;27;20940;-59
2022/05/08 08:27:41;;;;;;;17.13;15.53;;;16.80;99.90;;;;;;5137578;27;20445;-59
2022/05/08 08:30:09;;;;;;;15.90;14.50;;;;;;;;;;5137773;27;20477;-58
2022/05/08 08:32:36;;;;;;;16.00;14.47;;;17.30;99.90;;;;;;5137798;27;20912;-59
2022/05/08 08:35:04;;;;;;;14.10;12.80;;;17.50;99.90;;;;;;5137657;27;20477;-59
2022/05/08 08:37:33;;;;;;;14.50;13.10;;;17.90;99.90;;;;;;5137851;27;20471;-59
2022/05/08 08:40:00;;;;;;;12.83;11.73;;;18.70;99.90;;;;;;5137859;27;20501;-59
2022/05/08 08:42:29;;;;;;;17.73;12.00;;;19.50;99.90;;;;;;5137937;27;20532;-58
2022/05/08 08:47:51;;;;;;;11.23;10.23;;;20.00;99.90;;;;;;5137399;27;20491;-59
2022/05/08 08:50:19;;;;;;;18.10;11.80;;;20.20;99.90;;;;;;5137858;27;20418;-59
2022/05/08 08:52:49;;;;;;;11.37;10.37;;;20.40;99.90;;;;;;5137210;27;20588;-59
2022/05/08 08:55:16;;;;;;;11.60;10.60;;;20.10;99.90;;;;;;5137670;27;20564;-59
2022/05/08 08:57:44;;;;;;;12.10;10.77;;;20.80;99.90;;;;;;5137399;27;20460;-59
2022/05/08 09:00:12;;;;;;;12.40;11.30;;;21.20;99.90;;;;;;5137294;27;21010;-59
2022/05/08 09:02:40;;;;;;;11.60;10.63;;;21.50;99.90;;;;;;5137392;27;20502;-59
2022/05/08 09:05:09;;;;;;;12.77;11.47;;;22.50;99.90;;;;;;5137489;27;20450;-59
2022/05/08 09:07:38;;;;;;;12.60;10.00;;;21.60;99.90;;;;;;5137268;27;20536;-60
2022/05/08 09:10:15;;;;;;;14.43;11.93;;;22.00;99.90;;;;;;5137074;27;20430;-58
2022/05/08 09:12:44;;;;;;;12.33;11.07;;;22.00;99.90;;;;;;5136972;27;20916;-58
2022/05/08 09:15:23;;;;;;;12.57;11.37;;;21.70;99.90;;;;;;5136855;27;20481;-59
2022/05/08 09:17:51;;;;;;;12.90;11.77;;;21.50;99.90;;;;;;5136824;27;20892;-59
2022/05/08 09:20:27;;;;;;;13.70;12.50;;;21.70;99.90;;;;;;5136020;27;20541;-59
2022/05/08 09:23:08;;;;;;;12.70;11.60;;;21.10;99.90;;;;;;5136656;27;20944;-59
2022/05/08 09:25:59;;;;;;;13.73;10.67;;;21.70;99.90;;;;;;5137300;27;20433;-59
2022/05/08 09:28:29;;;;;;;12.87;11.67;;;21.20;99.90;;;;;;5132364;27;20522;-59
2022/05/08 09:31:01;;;;;;;11.40;10.30;;;21.30;99.90;;;;;;5136547;27;20488;-59
2022/05/08 09:33:33;;;;;;;10.93;9.83;;;21.60;99.90;;;;;;5136422;27;20452;-60
2022/05/08 09:36:02;;;;;;;10.80;9.80;;;21.70;99.90;;;;;;5136695;27;20835;-59
2022/05/08 09:38:49;;;;;;;11.07;9.97;;;22.00;99.90;;;;;;5136528;27;20984;-59
2022/05/08 09:41:19;;;;;;;11.03;10.13;;;21.90;99.90;;;;;;5136325;27;20422;-59
2022/05/08 09:43:48;;;;;;;9.47;8.43;;;22.00;99.90;;;;;;5136356;27;20461;-59
2022/05/08 09:46:17;;;;;;;9.77;8.87;;;22.50;99.90;;;;;;5136162;27;20480;-59
2022/05/08 09:48:44;;;;;;;9.57;8.77;;;22.50;99.90;;;;;;5136483;27;20494;-59
2022/05/08 09:51:15;;;;;;;10.70;9.80;;;22.00;99.90;;;;;;5136403;27;20450;-60
2022/05/08 09:53:43;;;;;;;11.37;10.27;;;21.60;99.90;;;;;;5136211;27;20956;-59
2022/05/08 09:56:12;;;;;;;10.40;9.30;;;21.40;99.90;;;;;;5135837;27;20568;-59
2022/05/08 09:58:41;;;;;;;8.90;8.10;;;21.60;99.90;;;;;;5135979;27;20990;-59
2022/05/08 10:01:09;;;;;;;10.60;9.53;;;21.50;99.90;;;;;;5135959;27;20474;-58
2022/05/08 10:03:37;;;;;;;10.90;9.87;;;21.20;99.90;;;;;;5136057;27;21018;-59
2022/05/08 10:06:04;;;;;;;10.53;9.73;;;21.10;99.90;;;;;;5136100;27;20438;-60
2022/05/08 10:08:36;;;;;;;11.63;10.53;;;21.20;99.90;;;;;;5136165;27;20453;-60
2022/05/08 10:13:56;;;;;;;10.23;9.33;;;22.40;98.90;;;;;;5135668;27;20405;-59
2022/05/08 10:16:45;;;;;;;11.67;10.00;;;22.50;99.40;;;;;;5136037;27;20503;-59
2022/05/08 10:19:58;;;;;;;10.73;9.80;;;22.80;99.50;;;;;;5135879;27;20469;-59
2022/05/08 10:22:26;;;;;;;9.70;8.90;;;22.40;98.70;;;;;;5135914;27;20437;-59
2022/05/08 10:24:56;;;;;;;11.10;10.03;;;22.50;99.50;;;;;;5135476;27;20445;-58
2022/05/08 10:27:25;;;;;;;9.70;8.70;;;22.60;98.60;;;;;;5135603;27;20541;-58
2022/05/08 10:30:30;;;;;;;10.40;9.50;;;22.40;99.80;;;;;;5133990;27;20494;-59
2022/05/08 10:32:59;;;;;;;10.27;9.27;;;22.50;99.60;;;;;;5135136;27;20485;-58
2022/05/08 10:35:27;;;;;;;11.37;9.20;;;22.60;99.90;;;;;;5135556;27;20486;-59
2022/05/08 10:38:24;;;;;;;10.63;9.57;;;22.80;98.70;;;;;;5135444;27;20564;-58
2022/05/08 10:40:56;;;;;;;10.60;9.60;;;22.30;99.60;;;;;;5135598;27;20434;-58
2022/05/08 10:43:35;;;;;;;10.27;9.30;;;22.40;99.40;;;;;;5135298;27;20857;-59
2022/05/08 10:46:22;;;;;;;10.13;9.17;;;22.60;99.60;;;;;;5135244;27;20508;-58
2022/05/08 10:48:51;;;;;;;10.17;9.17;;;22.80;98.90;;;;;;5135248;27;20552;-58
2022/05/08 10:51:19;;;;;;;10.03;9.10;;;23.10;99.60;;;;;;5135276;27;20573;-58
2022/05/08 10:53:46;;;;;;;9.63;8.90;;;22.80;97.30;;;;;;5135170;27;20468;-57
2022/05/08 10:56:14;;;;;;;11.30;9.80;;;23.40;98.20;;;;;;5134780;27;20473;-59
2022/05/08 10:58:52;;;;;;;9.60;8.60;;;23.20;98.10;;;;;;5134596;27;20518;-58
2022/05/08 11:01:19;;;;;;;7.77;6.00;;;23.00;98.40;;;;;;5135181;27;20426;-59
2022/05/08 11:03:46;;;;;;;5.30;4.80;;;23.30;94.40;;;;;;5135207;27;20528;-58
2022/05/08 11:06:23;;;;;;;8.07;5.73;;;23.10;93.30;;;;;;5134776;27;20442;-59
2022/05/08 11:08:50;;;;;;;6.53;5.93;;;23.00;92.80;;;;;;5135081;27;20544;-59
2022/05/08 11:11:20;;;;;;;6.73;5.80;;;23.20;92.60;;;;;;5134611;27;20495;-60
2022/05/08 11:13:48;;;;;;;6.37;5.77;;;23.30;92.10;;;;;;5134996;27;20485;-59
2022/05/08 11:16:36;;;;;;;6.03;5.43;;;23.40;93.00;;;;;;5134609;27;20512;-60
2022/05/08 11:19:04;;;;;;;8.27;6.37;;;24.10;92.60;;;;;;5135058;27;20462;-60
2022/05/08 11:21:34;;;;;;;6.10;5.47;;;23.70;91.30;;;;;;5134590;27;20931;-60
2022/05/08 11:24:03;;;;;;;5.47;5.07;;;23.60;90.60;;;;;;5134705;27;20801;-60
2022/05/08 11:27:06;;;;;;;6.93;6.33;;;24.10;91.30;;;;;;5134876;27;20540;-59
2022/05/08 11:30:00;;;;;;;7.57;5.23;;;23.90;89.60;;;;;;5093500;27;20480;-59
2022/05/08 11:36:14;;;;;;;8.80;6.33;;;23.60;90.00;;;;;;5113554;28;20558;-57
2022/05/08 11:41:36;;;;;;;7.47;5.60;;;23.40;91.20;;;;;;5133380;27;20438;-59
2022/05/08 11:44:16;;;;;;;7.03;6.43;;;23.00;90.20;;;;;;5133846;27;20442;-60
2022/05/08 11:46:45;;;;;;;6.83;5.97;;;23.00;90.60;;;;;;5134213;27;20857;-59
2022/05/08 11:49:16;;;;;;;7.80;7.00;;;22.90;90.30;;;;;;5133895;27;20473;-59
2022/05/08 11:51:44;;;;;;;6.73;6.03;;;22.80;91.00;;;;;;5134043;28;20437;-59
2022/05/08 11:54:24;;;;;;;7.57;5.60;;;22.70;90.10;;;;;;5134265;28;20511;-58
2022/05/08 11:57:09;;;;;;;6.57;5.97;;;23.00;90.70;;;;;;5133715;28;20809;-58
2022/05/08 11:59:37;;;;;;;5.80;5.30;;;23.40;89.00;;;;;;5134371;28;20481;-58
2022/05/08 12:02:04;;;;;;;6.27;5.73;;;23.60;89.50;;;;;;5133901;28;21007;-59
2022/05/08 12:04:33;;;;;;;5.80;5.27;;;23.50;87.70;;;;;;5134080;28;20441;-59
2022/05/08 12:07:03;;;;;;;6.13;5.33;;;22.90;87.80;;;;;;5134114;28;20529;-59
2022/05/08 12:09:33;;;;;;;7.47;6.77;;;23.00;89.80;;;;;;5133856;28;20830;-59
2022/05/08 12:12:24;;;;;;;8.87;6.10;;;23.10;87.00;;;;;;5133791;28;20455;-58
2022/05/08 12:14:51;;;;;;;6.67;5.50;;;23.50;90.60;;;;;;5134029;28;20430;-58
2022/05/08 12:17:19;;;;;;;9.00;6.10;;;23.40;89.10;;;;;;5133784;28;20836;-58
2022/05/08 12:19:54;;;;;;;6.57;6.00;;;23.40;89.60;;;;;;5133642;28;21054;-58
2022/05/08 12:22:23;;;;;;;7.10;6.40;;;23.60;91.00;;;;;;5133878;28;20441;-58
2022/05/08 12:24:52;;;;;;;6.00;5.50;;;23.60;90.50;;;;;;5133977;28;20452;-58
2022/05/08 12:27:19;;;;;;;7.40;6.30;;;23.90;90.20;;;;;;5133772;28;20477;-58
2022/05/08 12:29:47;;;;;;;6.53;5.90;;;23.30;90.10;;;;;;5133372;28;20546;-58
2022/05/08 12:32:15;;;;;;;7.20;6.60;;;22.90;89.70;;;;;;5133745;28;20445;-58
2022/05/08 12:34:43;;;;;;;7.83;7.13;;;22.90;90.60;;;;;;5133911;28;20470;-59
2022/05/08 12:37:11;;;;;;;6.23;5.73;;;23.20;91.40;;;;;;5133525;28;20481;-58
2022/05/08 12:39:39;;;;;;;6.53;5.90;;;23.40;91.20;;;;;;5133570;28;20544;-58
2022/05/08 12:42:08;;;;;;;6.10;5.63;;;23.30;90.60;;;;;;5133931;28;20449;-59
2022/05/08 12:44:36;;;;;;;6.63;6.07;;;23.70;90.10;;;;;;5133579;28;20457;-58
2022/05/08 12:47:05;;;;;;;6.63;5.27;;;23.50;87.70;;;;;;5133880;28;20444;-58
2022/05/08 12:49:32;;;;;;;5.57;5.17;;;23.10;88.70;;;;;;5133627;28;20516;-58
2022/05/08 12:51:59;;;;;;;6.77;5.43;;;23.10;90.20;;;;;;5133739;28;20857;-58
2022/05/08 12:54:26;;;;;;;7.47;5.37;;;23.30;90.00;;;;;;5134276;27;20455;-58
2022/05/08 12:56:54;;;;;;;6.20;5.60;;;23.20;88.70;;;;;;5137363;27;20481;-58
2022/05/08 13:02:07;;;;;;;8.93;5.20;;;23.20;88.00;;;;;;5137300;27;20555;-59
2022/05/08 13:04:34;;;;;;;5.37;4.87;;;23.10;85.40;;;;;;5136961;27;21005;-59
2022/05/08 13:07:01;;;;;;;5.60;5.10;;;23.10;86.10;;;;;;5137230;27;20533;-59
2022/05/08 13:09:28;;;;;;;5.80;5.30;;;23.10;87.60;;;;;;5137165;27;20465;-59
2022/05/08 13:11:55;;;;;;;5.90;5.30;;;23.30;87.70;;;;;;5137336;27;20525;-58
2022/05/08 13:14:24;;;;;;;6.40;5.90;;;23.30;88.50;;;;;;5136851;27;20456;-58